createdAt,value
2022-10-18T00:02:14.183Z,6.60
2022-10-18T00:04:40.811Z,8.20
2022-10-18T00:07:07.507Z,7.15
2022-10-18T00:09:34.426Z,8.10
2022-10-18T00:12:01.027Z,6.47
2022-10-18T00:14:27.595Z,7.60
2022-10-18T00:16:54.173Z,6.68
2022-10-18T00:19:20.746Z,7.05
2022-10-18T00:21:50.329Z,7.20
2022-10-18T00:24:16.935Z,7.95
2022-10-18T00:26:43.579Z,7.38
2022-10-18T00:29:13.894Z,6.47
2022-10-18T00:31:40.935Z,7.10
2022-10-18T00:34:12.188Z,8.23
2022-10-18T00:36:39.061Z,7.22
2022-10-18T00:39:07.650Z,6.78
2022-10-18T00:41:36.076Z,7.50
2022-10-18T00:44:27.290Z,6.93
2022-10-18T00:47:02.480Z,6.95
2022-10-18T00:49:34.002Z,7.95
2022-10-18T00:52:29.904Z,6.88
2022-10-18T00:54:57.855Z,7.30
2022-10-18T00:57:25.431Z,7.13
2022-10-18T00:59:52.922Z,7.40
2022-10-18T01:02:19.623Z,6.80
2022-10-18T01:04:47.212Z,7.13
2022-10-18T01:07:25.662Z,6.70
2022-10-18T01:10:22.729Z,6.68
2022-10-18T01:13:09.826Z,6.80
2022-10-18T01:15:39.382Z,7.03
2022-10-18T01:18:12.026Z,7.50
2022-10-18T01:21:29.601Z,7.43
2022-10-18T01:24:49.615Z,6.55
2022-10-18T01:27:40.752Z,7.45
2022-10-18T01:30:35.759Z,6.60
2022-10-18T01:33:26.778Z,6.65
2022-10-18T01:36:21.363Z,7.87
2022-10-18T01:38:52.345Z,7.10
2022-10-18T01:41:22.675Z,7.35
2022-10-18T01:43:53.070Z,7.35
2022-10-18T01:46:24.028Z,7.22
2022-10-18T01:48:52.658Z,22.93
2022-10-18T01:51:29.681Z,9.63
2022-10-18T01:53:57.071Z,14.35
2022-10-18T01:56:36.687Z,10.77
2022-10-18T01:59:15.384Z,10.13
2022-10-18T02:01:47.520Z,9.45
2022-10-18T02:04:52.731Z,10.93
2022-10-18T02:07:28.655Z,8.65
2022-10-18T02:10:01.724Z,8.10
2022-10-18T02:12:32.512Z,8.77
2022-10-18T02:15:01.496Z,7.60
2022-10-18T02:17:30.496Z,10.32
2022-10-18T02:19:58.198Z,8.25
2022-10-18T02:22:28.098Z,8.98
2022-10-18T02:24:57.886Z,9.32
2022-10-18T02:27:24.938Z,7.32
2022-10-18T02:29:52.772Z,9.30
2022-10-18T02:32:53.565Z,10.52
2022-10-18T02:35:37.518Z,10.48
2022-10-18T02:38:07.113Z,7.20
2022-10-18T02:40:33.782Z,7.88
2022-10-18T02:43:00.373Z,9.23
2022-10-18T02:45:27.446Z,7.72
2022-10-18T02:47:54.080Z,7.50
2022-10-18T02:50:20.769Z,6.30
2022-10-18T02:52:47.361Z,6.63
2022-10-18T02:55:14.037Z,8.82
2022-10-18T02:57:40.691Z,6.80
2022-10-18T03:00:08.195Z,7.03
2022-10-18T03:02:35.175Z,6.32
2022-10-18T03:05:01.835Z,7.90
2022-10-18T03:07:28.668Z,7.28
2022-10-18T03:09:55.357Z,7.68
2022-10-18T03:12:21.945Z,6.70
2022-10-18T03:14:48.529Z,8.00
2022-10-18T03:17:15.134Z,7.10
2022-10-18T03:19:41.730Z,7.13
2022-10-18T03:22:08.338Z,6.72
2022-10-18T03:24:34.903Z,6.85
2022-10-18T03:27:01.632Z,7.82
2022-10-18T03:29:28.201Z,7.00
2022-10-18T03:31:54.760Z,8.07
2022-10-18T03:34:21.345Z,6.70
2022-10-18T03:36:47.940Z,7.03
2022-10-18T03:39:14.550Z,7.57
2022-10-18T03:41:41.167Z,8.32
2022-10-18T03:44:07.745Z,7.70
2022-10-18T03:46:34.301Z,7.90
2022-10-18T03:49:00.875Z,6.82
2022-10-18T03:51:27.441Z,6.65
2022-10-18T03:53:54.028Z,6.85
2022-10-18T03:56:20.583Z,6.50
2022-10-18T03:58:47.138Z,7.03
2022-10-18T04:01:13.773Z,6.97
2022-10-18T04:03:40.399Z,6.50
2022-10-18T04:06:09.879Z,6.55
2022-10-18T04:08:36.515Z,6.70
2022-10-18T04:11:08.528Z,6.60
2022-10-18T04:13:37.067Z,6.80
2022-10-18T04:16:03.653Z,6.75
2022-10-18T04:18:30.254Z,6.60
2022-10-18T04:20:56.835Z,6.50
2022-10-18T04:23:23.487Z,6.90
2022-10-18T04:25:50.125Z,7.10
2022-10-18T04:28:16.730Z,7.03
2022-10-18T04:30:43.306Z,6.63
2022-10-18T04:33:09.890Z,6.28
2022-10-18T04:35:36.821Z,6.68
2022-10-18T04:38:03.416Z,6.13
2022-10-18T04:40:29.971Z,6.50
2022-10-18T04:42:56.545Z,6.88
2022-10-18T04:45:23.129Z,6.60
2022-10-18T04:47:49.687Z,6.05
2022-10-18T04:50:16.436Z,5.95
2022-10-18T04:52:43.032Z,6.70
2022-10-18T04:55:09.867Z,6.07
2022-10-18T04:57:36.447Z,7.28
2022-10-18T05:00:03.820Z,5.97
2022-10-18T05:02:30.704Z,6.50
2022-10-18T05:04:57.713Z,5.97
2022-10-18T05:07:24.425Z,6.25
2022-10-18T05:09:50.997Z,6.47
2022-10-18T05:12:17.566Z,6.10
2022-10-18T05:14:44.145Z,6.47
2022-10-18T05:17:10.731Z,6.43
2022-10-18T05:19:37.294Z,6.40
2022-10-18T05:22:03.853Z,6.22
2022-10-18T05:24:30.393Z,6.13
2022-10-18T05:26:57.535Z,5.47
2022-10-18T05:29:24.704Z,6.90
2022-10-18T05:31:51.439Z,6.35
2022-10-18T05:34:18.104Z,6.30
2022-10-18T05:36:44.677Z,6.88
2022-10-18T05:39:11.269Z,6.30
2022-10-18T05:41:37.867Z,6.35
2022-10-18T05:44:06.111Z,6.97
2022-10-18T05:46:33.427Z,6.05
2022-10-18T05:49:00.002Z,6.07
2022-10-18T05:51:26.583Z,6.38
2022-10-18T05:53:54.720Z,6.07
2022-10-18T05:56:21.341Z,5.72
2022-10-18T05:58:51.351Z,6.13
2022-10-18T06:01:18.683Z,6.07
2022-10-18T06:03:45.262Z,5.68
2022-10-18T06:06:13.879Z,6.07
2022-10-18T06:08:41.509Z,6.28
2022-10-18T06:11:10.093Z,5.80
2022-10-18T06:13:41.690Z,6.68
2022-10-18T06:16:08.600Z,6.40
2022-10-18T06:18:35.181Z,6.30
2022-10-18T06:21:01.770Z,6.83
2022-10-18T06:23:28.755Z,6.13
2022-10-18T06:26:02.597Z,6.60
2022-10-18T06:28:30.427Z,6.95
2022-10-18T06:30:57.833Z,6.40
2022-10-18T06:33:24.466Z,6.82
2022-10-18T06:35:58.895Z,6.18
2022-10-18T06:38:26.227Z,7.30
2022-10-18T06:40:53.594Z,5.55
2022-10-18T06:43:21.616Z,7.05
2022-10-18T06:45:49.180Z,7.10
2022-10-18T06:48:16.314Z,6.05
2022-10-18T06:50:43.175Z,7.68
2022-10-18T06:53:09.780Z,6.80
2022-10-18T06:55:36.453Z,6.22
2022-10-18T06:58:03.101Z,8.43
2022-10-18T07:00:29.795Z,5.78
2022-10-18T07:02:58.260Z,7.82
2022-10-18T07:05:25.053Z,6.65
2022-10-18T07:07:54.295Z,6.22
2022-10-18T07:10:23.923Z,6.17
2022-10-18T07:12:53.426Z,6.40
2022-10-18T07:15:24.219Z,6.15
2022-10-18T07:17:50.885Z,6.60
2022-10-18T07:20:17.791Z,5.53
2022-10-18T07:22:44.483Z,6.70
2022-10-18T07:25:11.079Z,5.82
2022-10-18T07:27:42.381Z,6.03
2022-10-18T07:30:11.200Z,6.43
2022-10-18T07:32:37.794Z,5.80
2022-10-18T07:35:04.628Z,7.97
2022-10-18T07:37:31.909Z,6.60
2022-10-18T07:39:58.676Z,7.95
2022-10-18T07:42:25.318Z,8.70
2022-10-18T07:44:51.954Z,7.80
2022-10-18T07:47:18.542Z,7.73
2022-10-18T07:49:45.185Z,6.10
2022-10-18T07:52:11.827Z,8.02
2022-10-18T07:54:38.446Z,7.60
2022-10-18T07:57:05.412Z,7.05
2022-10-18T07:59:32.070Z,6.50
2022-10-18T08:01:58.759Z,7.13
2022-10-18T08:04:25.480Z,6.50
2022-10-18T08:06:52.043Z,5.90
2022-10-18T08:09:18.633Z,5.82
2022-10-18T08:11:45.207Z,7.73
2022-10-18T08:14:11.771Z,5.60
2022-10-18T08:16:38.368Z,6.03
2022-10-18T08:19:04.984Z,6.20
2022-10-18T08:21:31.831Z,6.75
2022-10-18T08:23:58.492Z,6.40
2022-10-18T08:26:25.261Z,6.00
2022-10-18T08:29:10.171Z,5.88
2022-10-18T08:31:38.553Z,5.28
2022-10-18T08:34:05.121Z,5.88
2022-10-18T08:36:31.686Z,5.57
2022-10-18T08:38:58.806Z,5.75
2022-10-18T08:41:37.180Z,7.00
2022-10-18T08:44:07.465Z,5.82
2022-10-18T08:46:36.441Z,6.28
2022-10-18T08:49:05.564Z,7.40
2022-10-18T08:51:44.537Z,6.85
2022-10-18T08:54:14.084Z,6.07
2022-10-18T08:56:50.756Z,5.97
2022-10-18T08:59:18.033Z,6.03
2022-10-18T09:02:07.775Z,5.27
2022-10-18T09:04:37.290Z,6.20
2022-10-18T09:07:21.996Z,5.97
2022-10-18T09:10:14.594Z,5.90
2022-10-18T09:12:55.709Z,5.30
2022-10-18T09:15:59.600Z,5.95
2022-10-18T09:18:29.007Z,5.22
2022-10-18T09:20:58.486Z,6.28
2022-10-18T09:23:44.124Z,5.43
2022-10-18T09:26:17.295Z,6.78
2022-10-18T09:29:13.567Z,5.90
2022-10-18T09:31:55.357Z,6.45
2022-10-18T09:34:43.666Z,5.60
2022-10-18T09:37:13.527Z,5.72
2022-10-18T09:39:41.014Z,6.65
2022-10-18T09:42:31.730Z,6.75
2022-10-18T09:45:24.340Z,6.22
2022-10-18T09:48:08.545Z,6.25
2022-10-18T09:50:51.210Z,6.10
2022-10-18T09:53:38.503Z,5.50
2022-10-18T09:56:26.509Z,5.70
2022-10-18T09:58:53.133Z,5.93
2022-10-18T10:01:25.845Z,5.00
2022-10-18T10:03:53.049Z,5.55
2022-10-18T10:06:25.444Z,5.80
2022-10-18T10:08:58.366Z,5.28
2022-10-18T10:11:46.222Z,5.30
2022-10-18T10:14:18.200Z,6.22
2022-10-18T10:16:49.653Z,6.15
2022-10-18T10:19:37.740Z,6.10
2022-10-18T10:22:09.035Z,5.50
2022-10-18T10:24:49.405Z,6.05
2022-10-18T10:27:33.067Z,4.88
2022-10-18T10:30:06.723Z,5.47
2022-10-18T10:32:46.430Z,5.05
2022-10-18T10:35:41.441Z,5.20
2022-10-18T10:38:23.890Z,5.72
2022-10-18T10:40:50.878Z,6.10
2022-10-18T10:43:37.211Z,4.95
2022-10-18T10:46:11.187Z,5.78
2022-10-18T10:49:27.975Z,4.70
2022-10-18T10:52:08.443Z,5.18
2022-10-18T10:54:50.437Z,5.10
2022-10-18T10:57:24.878Z,5.30
2022-10-18T10:59:57.075Z,5.30
2022-10-18T11:02:31.310Z,4.97
2022-10-18T11:05:21.668Z,4.90
2022-10-18T11:07:52.169Z,5.68
2022-10-18T11:10:22.981Z,5.90
2022-10-18T11:13:18.481Z,6.13
2022-10-18T11:15:57.431Z,4.95
2022-10-18T11:18:36.655Z,4.97
2022-10-18T11:21:10.707Z,4.72
2022-10-18T11:23:42.394Z,4.75
2022-10-18T11:26:11.781Z,5.50
2022-10-18T11:29:09.285Z,4.80
2022-10-18T11:32:14.072Z,5.47
2022-10-18T11:34:52.825Z,4.72
2022-10-18T11:37:38.517Z,4.90
2022-10-18T11:40:14.817Z,5.10
2022-10-18T11:42:56.392Z,4.82
2022-10-18T11:45:54.653Z,4.90
2022-10-18T11:48:39.927Z,4.65
2022-10-18T11:51:38.643Z,4.93
2022-10-18T11:54:16.872Z,4.80
2022-10-18T11:56:55.009Z,4.90
2022-10-18T11:59:58.378Z,5.10
2022-10-18T12:02:47.000Z,4.70
2022-10-18T12:05:30.022Z,4.60
2022-10-18T12:08:13.467Z,4.50
2022-10-18T12:10:59.891Z,5.03
2022-10-18T12:13:37.181Z,5.18
2022-10-18T12:16:06.898Z,4.60
2022-10-18T12:18:36.064Z,4.10
2022-10-18T12:21:03.728Z,4.90
2022-10-18T12:23:30.327Z,4.50
2022-10-18T12:26:02.447Z,4.45
2022-10-18T12:28:54.027Z,4.65
2022-10-18T12:31:26.762Z,4.70
2022-10-18T12:34:03.584Z,4.07
2022-10-18T12:37:01.381Z,4.63
2022-10-18T12:39:43.679Z,4.90
2022-10-18T12:42:29.205Z,5.10
2022-10-18T12:45:22.913Z,4.78
2022-10-18T12:47:49.644Z,4.20
2022-10-18T12:50:31.245Z,4.60
2022-10-18T12:53:03.621Z,4.90
2022-10-18T12:55:34.383Z,4.82
2022-10-18T12:58:03.547Z,5.35
2022-10-18T13:00:30.100Z,5.40
2022-10-18T13:03:18.038Z,4.70
2022-10-18T13:05:55.898Z,4.50
2022-10-18T13:08:33.256Z,4.70
2022-10-18T13:11:11.733Z,4.30
2022-10-18T13:14:06.217Z,4.80
2022-10-18T13:16:54.692Z,4.13
2022-10-18T13:19:58.105Z,4.10
2022-10-18T13:22:40.636Z,4.40
2022-10-18T13:25:44.328Z,4.28
2022-10-18T13:28:29.214Z,4.20
2022-10-18T13:31:08.124Z,4.95
2022-10-18T13:33:39.750Z,4.47
2022-10-18T13:36:22.760Z,4.40
2022-10-18T13:39:04.962Z,4.10
2022-10-18T13:41:43.393Z,4.55
2022-10-18T13:44:37.758Z,4.20
2022-10-18T13:47:04.372Z,4.13
2022-10-18T13:49:40.111Z,4.88
2022-10-18T13:52:43.605Z,4.43
2022-10-18T13:55:41.095Z,4.25
2022-10-18T13:58:48.894Z,4.23
2022-10-18T14:02:01.380Z,4.30
2022-10-18T14:04:37.949Z,4.43
2022-10-18T14:07:06.078Z,4.10
2022-10-18T14:09:56.084Z,5.03
2022-10-18T14:12:41.150Z,4.28
2022-10-18T14:15:16.009Z,5.53
2022-10-18T14:17:53.362Z,4.50
2022-10-18T14:20:30.224Z,4.68
2022-10-18T14:23:02.559Z,5.93
2022-10-18T14:25:32.395Z,5.03
2022-10-18T14:28:19.865Z,4.63
2022-10-18T14:31:02.035Z,5.68
2022-10-18T14:33:33.618Z,4.85
2022-10-18T14:36:24.432Z,5.30
2022-10-18T14:38:58.015Z,4.80
2022-10-18T14:41:37.561Z,5.05
2022-10-18T14:44:16.366Z,5.38
2022-10-18T14:46:45.258Z,5.53
2022-10-18T14:49:13.226Z,4.45
2022-10-18T14:51:42.419Z,4.32
2022-10-18T14:54:19.083Z,4.30
2022-10-18T14:56:46.171Z,5.03
2022-10-18T14:59:18.109Z,4.85
2022-10-18T15:01:54.505Z,4.05
2022-10-18T15:04:27.662Z,4.70
2022-10-18T15:06:55.652Z,4.53
2022-10-18T15:09:24.132Z,4.57
2022-10-18T15:11:51.736Z,4.05
2022-10-18T15:14:20.436Z,5.00
2022-10-18T15:16:49.615Z,4.70
2022-10-18T15:19:16.123Z,4.43
2022-10-18T15:22:19.737Z,5.95
2022-10-18T15:24:44.409Z,5.93
2022-10-18T15:27:18.537Z,8.48
2022-10-18T15:29:45.257Z,6.27
2022-10-18T15:32:25.737Z,4.80
2022-10-18T15:34:53.132Z,4.72
2022-10-18T15:37:39.354Z,5.50
2022-10-18T15:40:36.140Z,4.00
2022-10-18T15:43:06.244Z,4.43
2022-10-18T15:45:36.175Z,4.25
2022-10-18T15:48:18.256Z,5.25
2022-10-18T15:50:53.006Z,5.28
2022-10-18T15:53:24.311Z,6.20
2022-10-18T15:55:59.749Z,8.85
2022-10-18T15:58:39.190Z,4.60
2022-10-18T16:01:14.279Z,6.20
2022-10-18T16:03:41.640Z,4.88
2022-10-18T16:06:12.249Z,5.15
2022-10-18T16:08:47.616Z,5.30
2022-10-18T16:11:20.396Z,4.90
2022-10-18T16:13:47.741Z,4.97
2022-10-18T16:16:17.966Z,4.32
2022-10-18T16:18:44.917Z,4.10
2022-10-18T16:21:24.473Z,5.72
2022-10-18T16:23:51.380Z,4.53
2022-10-18T16:26:18.839Z,5.28
2022-10-18T16:28:45.599Z,4.88
2022-10-18T16:31:17.406Z,5.57
2022-10-18T16:33:44.500Z,6.25
2022-10-18T16:36:17.193Z,5.43
2022-10-18T16:38:45.158Z,4.45
2022-10-18T16:41:13.348Z,4.22
2022-10-18T16:43:39.937Z,4.65
2022-10-18T16:46:08.019Z,4.63
2022-10-18T16:48:34.781Z,5.00
2022-10-18T16:51:02.009Z,3.90
2022-10-18T16:53:28.785Z,7.35
2022-10-18T16:55:58.525Z,3.83
2022-10-18T16:58:27.243Z,4.82
2022-10-18T17:00:54.250Z,4.00
2022-10-18T17:03:20.913Z,3.95
2022-10-18T17:05:47.661Z,4.30
2022-10-18T17:08:23.456Z,3.78
2022-10-18T17:10:54.937Z,5.03
2022-10-18T17:13:23.121Z,5.10
2022-10-18T17:15:50.781Z,5.68
2022-10-18T17:18:23.152Z,4.80
2022-10-18T17:20:49.854Z,4.35
2022-10-18T17:23:16.527Z,5.03
2022-10-18T17:25:57.473Z,4.78
2022-10-18T17:28:31.717Z,4.80
2022-10-18T17:30:58.354Z,4.22
2022-10-18T17:33:24.973Z,4.82
2022-10-18T17:35:51.551Z,5.00
2022-10-18T17:38:18.104Z,5.18
2022-10-18T17:40:44.718Z,4.53
2022-10-18T17:43:13.444Z,4.80
2022-10-18T17:45:51.115Z,5.05
2022-10-18T17:48:17.751Z,4.90
2022-10-18T17:50:44.315Z,5.85
2022-10-18T17:53:12.965Z,4.72
2022-10-18T17:55:39.925Z,4.65
2022-10-18T17:58:06.484Z,5.43
2022-10-18T18:00:33.081Z,5.68
2022-10-18T18:03:00.710Z,3.72
2022-10-18T18:05:32.681Z,4.38
2022-10-18T18:08:02.947Z,5.25
2022-10-18T18:10:33.513Z,4.22
2022-10-18T18:13:00.768Z,5.85
2022-10-18T18:15:27.665Z,5.93
2022-10-18T18:17:58.117Z,3.90
2022-10-18T18:20:25.978Z,4.68
2022-10-18T18:22:52.652Z,6.20
2022-10-18T18:25:19.396Z,4.88
2022-10-18T18:27:45.981Z,4.50
2022-10-18T18:30:12.909Z,5.47
2022-10-18T18:32:39.571Z,6.28
2022-10-18T18:35:06.424Z,3.90
2022-10-18T18:37:33.054Z,4.82
2022-10-18T18:39:59.602Z,4.70
2022-10-18T18:42:26.167Z,4.28
2022-10-18T18:44:52.727Z,4.53
2022-10-18T18:47:21.720Z,4.90
2022-10-18T18:49:48.771Z,4.32
2022-10-18T18:52:15.511Z,7.55
2022-10-18T18:54:42.090Z,5.25
2022-10-18T18:57:08.684Z,4.75
2022-10-18T18:59:35.393Z,5.25
2022-10-18T19:02:01.972Z,4.30
2022-10-18T19:04:29.133Z,5.05
2022-10-18T19:06:55.811Z,5.53
2022-10-18T19:09:22.795Z,5.00
2022-10-18T19:11:52.425Z,5.00
2022-10-18T19:14:19.860Z,5.53
2022-10-18T19:16:50.262Z,4.82
2022-10-18T19:19:20.005Z,4.95
2022-10-18T19:21:52.147Z,4.93
2022-10-18T19:24:23.752Z,4.55
2022-10-18T19:26:57.217Z,4.53
2022-10-18T19:29:31.408Z,4.20
2022-10-18T19:32:00.888Z,4.55
2022-10-18T19:34:29.360Z,4.10
2022-10-18T19:36:56.141Z,5.40
2022-10-18T19:39:25.305Z,4.22
2022-10-18T19:41:57.168Z,4.28
2022-10-18T19:44:27.499Z,5.00
2022-10-18T19:46:54.880Z,4.10
2022-10-18T19:49:21.465Z,4.80
2022-10-18T19:51:48.420Z,4.55
2022-10-18T19:54:15.928Z,4.90
2022-10-18T19:56:42.768Z,4.68
2022-10-18T19:59:11.561Z,5.30
2022-10-18T20:01:38.521Z,4.78
2022-10-18T20:04:05.504Z,4.72
2022-10-18T20:06:32.224Z,4.47
2022-10-18T20:08:58.802Z,4.38
2022-10-18T20:11:27.448Z,3.70
2022-10-18T20:13:54.693Z,4.50
2022-10-18T20:16:27.839Z,4.25
2022-10-18T20:18:56.953Z,4.70
2022-10-18T20:21:23.640Z,4.10
2022-10-18T20:23:50.246Z,3.95
2022-10-18T20:26:20.847Z,4.15
2022-10-18T20:28:59.601Z,4.15
2022-10-18T20:31:31.852Z,4.55
2022-10-18T20:34:01.018Z,5.78
2022-10-18T20:36:29.690Z,4.70
2022-10-18T20:38:56.706Z,4.60
2022-10-18T20:41:29.434Z,4.40
2022-10-18T20:44:01.109Z,4.60
2022-10-18T20:46:31.113Z,5.35
2022-10-18T20:48:57.712Z,5.53
2022-10-18T20:51:24.558Z,4.47
2022-10-18T20:53:51.955Z,4.47
2022-10-18T20:56:20.739Z,3.72
2022-10-18T20:58:49.699Z,4.10
2022-10-18T21:01:19.979Z,4.63
2022-10-18T21:03:49.191Z,4.05
2022-10-18T21:06:21.464Z,4.10
2022-10-18T21:08:53.051Z,4.93
2022-10-18T21:11:19.732Z,4.47
2022-10-18T21:13:59.513Z,4.57
2022-10-18T21:16:27.027Z,4.22
2022-10-18T21:18:53.732Z,4.40
2022-10-18T21:21:25.671Z,4.13
2022-10-18T21:23:52.761Z,4.15
2022-10-18T21:26:24.804Z,4.15
2022-10-18T21:28:59.733Z,4.55
2022-10-18T21:31:32.028Z,4.30
2022-10-18T21:34:00.866Z,4.60
2022-10-18T21:36:30.801Z,4.88
2022-10-18T21:38:57.598Z,4.82
2022-10-18T21:41:24.530Z,5.38
2022-10-18T21:43:53.364Z,4.28
2022-10-18T21:46:21.849Z,4.85
2022-10-18T21:48:53.846Z,4.30
2022-10-18T21:51:23.084Z,4.38
2022-10-18T21:53:51.638Z,4.68
2022-10-18T21:56:32.541Z,5.22
2022-10-18T21:58:59.566Z,4.88
2022-10-18T22:01:32.725Z,5.93
2022-10-18T22:04:00.531Z,3.92
2022-10-18T22:06:30.150Z,4.38
2022-10-18T22:08:59.580Z,4.50
2022-10-18T22:11:32.565Z,5.20
2022-10-18T22:13:59.862Z,5.18
2022-10-18T22:16:26.983Z,5.10
2022-10-18T22:18:57.912Z,4.32
2022-10-18T22:21:24.485Z,4.03
2022-10-18T22:23:53.438Z,4.95
2022-10-18T22:26:24.934Z,5.38
2022-10-18T22:28:59.724Z,4.20
2022-10-18T22:31:29.051Z,4.50
2022-10-18T22:33:58.378Z,3.50
2022-10-18T22:36:26.183Z,6.07
2022-10-18T22:38:52.858Z,3.33
2022-10-18T22:41:19.936Z,4.40
2022-10-18T22:43:50.032Z,5.57
2022-10-18T22:46:17.029Z,5.38
2022-10-18T22:48:44.474Z,4.22
2022-10-18T22:51:11.857Z,4.50
2022-10-18T22:53:39.777Z,4.07
2022-10-18T22:56:08.430Z,3.65
2022-10-18T22:58:35.011Z,4.97
2022-10-18T23:01:04.659Z,5.03
2022-10-18T23:03:31.328Z,3.97
2022-10-18T23:05:58.353Z,4.15
2022-10-18T23:08:25.083Z,4.60
2022-10-18T23:10:57.387Z,4.03
2022-10-18T23:13:25.209Z,4.07
2022-10-18T23:15:52.399Z,4.78
2022-10-18T23:18:19.471Z,4.28
2022-10-18T23:20:46.074Z,5.30
2022-10-18T23:23:13.360Z,4.00
2022-10-18T23:25:40.538Z,4.68
2022-10-18T23:28:07.214Z,4.53
2022-10-18T23:30:33.979Z,3.88
2022-10-18T23:33:00.819Z,4.43
2022-10-18T23:35:27.458Z,3.85
2022-10-18T23:37:54.077Z,3.90
2022-10-18T23:40:20.641Z,3.92
2022-10-18T23:42:47.225Z,4.55
2022-10-18T23:45:13.779Z,4.68
2022-10-18T23:47:40.332Z,4.18
2022-10-18T23:50:07.281Z,4.00
2022-10-18T23:52:33.843Z,3.85
2022-10-18T23:55:00.425Z,4.03
2022-10-18T23:57:27.691Z,4.47
2022-10-18T23:59:54.255Z,3.45
